Time;durP1;ratioP1;P1;durP2;ratioP2;P2;SDS_P1;SDS_P2;PMS_P1;PMS_P2;Temp;Humidity;BMP_temperature;BMP_pressure;BME280_temperature;BME280_humidity;BME280_pressure;Samples;Min_cycle;Max_cycle;Signal;HPM_P1;HPM_P2
2022/07/02 00:00:59;;;;;;;0.95;0.53;;;;;;;16.85;100.00;99935.13;1726118;80;21054;-55
2022/07/02 00:03:33;;;;;;;2.35;0.60;;;;;;;16.85;100.00;99930.17;1727000;80;21129;-56
2022/07/02 00:06:02;;;;;;;1.37;0.60;;;;;;;16.84;100.00;99926.59;1729657;80;21263;-55
2022/07/02 00:08:30;;;;;;;1.25;0.53;;;;;;;16.82;100.00;99934.49;1727155;80;21026;-55
2022/07/02 00:10:58;;;;;;;6.12;0.60;;;;;;;16.79;100.00;99944.21;1725559;80;21015;-56
2022/07/02 00:13:26;;;;;;;1.27;0.60;;;;;;;16.71;100.00;99946.11;1729355;80;21136;-55
2022/07/02 00:15:53;;;;;;;1.45;0.70;;;;;;;16.68;100.00;99944.09;1735942;80;21042;-55
2022/07/02 00:18:20;;;;;;;2.17;0.70;;;;;;;16.67;100.00;99943.25;1727407;80;21501;-55
2022/07/02 00:20:46;;;;;;;1.60;0.60;;;;;;;16.66;100.00;99948.30;1726603;80;21081;-55
2022/07/02 00:23:13;;;;;;;3.33;0.65;;;;;;;16.63;100.00;99948.02;1723967;80;21077;-55
2022/07/02 00:25:46;;;;;;;2.30;0.60;;;;;;;16.61;100.00;99964.91;1733415;80;21109;-55
2022/07/02 00:28:15;;;;;;;2.35;0.70;;;;;;;16.61;100.00;99964.04;1725572;80;21081;-55
2022/07/02 00:30:46;;;;;;;2.75;0.60;;;;;;;16.60;100.00;99957.70;1730877;80;21831;-55
2022/07/02 00:33:14;;;;;;;1.32;0.50;;;;;;;16.59;100.00;99961.88;1714365;80;21114;-55
2022/07/02 00:35:41;;;;;;;1.77;0.60;;;;;;;16.58;100.00;99954.24;1732499;80;21088;-55
2022/07/02 00:38:08;;;;;;;5.75;0.62;;;;;;;16.56;100.00;99954.83;1723391;80;21026;-55
2022/07/02 00:40:34;;;;;;;2.42;0.68;;;;;;;16.55;100.00;99947.65;1722865;80;21085;-55
2022/07/02 00:43:01;;;;;;;0.90;0.60;;;;;;;16.53;100.00;99946.88;1730979;80;21642;-55
2022/07/02 00:45:28;;;;;;;1.15;0.70;;;;;;;16.51;100.00;99948.83;1724036;80;21004;-55
2022/07/02 00:47:55;;;;;;;2.65;0.70;;;;;;;16.49;100.00;99950.80;1723399;80;21124;-55
2022/07/02 00:50:22;;;;;;;2.15;0.80;;;;;;;16.49;100.00;99950.80;1725444;80;21053;-55
2022/07/02 00:52:50;;;;;;;0.75;0.60;;;;;;;16.47;100.00;99958.18;1725535;80;21061;-55
2022/07/02 00:55:17;;;;;;;1.40;0.70;;;;;;;16.43;100.00;99966.14;1730579;80;21694;-55
2022/07/02 00:57:46;;;;;;;2.22;0.70;;;;;;;16.38;100.00;99966.97;1725862;80;21584;-55
2022/07/02 01:00:17;;;;;;;3.05;0.60;;;;;;;16.33;100.00;99954.69;1723043;80;21588;-55
2022/07/02 01:02:44;;;;;;;1.32;0.50;;;;;;;16.31;100.00;99957.50;1725256;80;21104;-55
2022/07/02 01:05:15;;;;;;;1.12;0.68;;;;;;;16.31;100.00;99959.34;1725791;80;21053;-55
2022/07/02 01:07:45;;;;;;;4.78;0.60;;;;;;;16.32;100.00;99967.88;1724678;80;21149;-54
2022/07/02 01:10:19;;;;;;;2.55;0.70;;;;;;;16.25;100.00;99966.05;1695794;80;21136;-54
2022/07/02 01:12:48;;;;;;;2.20;0.60;;;;;;;16.19;100.00;99977.33;1707957;81;21047;-55
2022/07/02 01:15:15;;;;;;;1.00;0.80;;;;;;;16.16;100.00;99977.05;1714575;81;21082;-55
2022/07/02 01:17:42;;;;;;;0.78;0.57;;;;;;;16.13;100.00;99978.63;1713454;81;21054;-54
2022/07/02 01:20:11;;;;;;;1.67;0.88;;;;;;;16.10;100.00;99974.75;1714218;81;21650;-55
2022/07/02 01:22:39;;;;;;;0.90;0.60;;;;;;;16.07;100.00;99972.75;1716521;81;21347;-55
2022/07/02 01:25:07;;;;;;;1.37;0.60;;;;;;;16.02;100.00;99968.09;1709478;81;21054;-55
2022/07/02 01:27:35;;;;;;;1.15;0.60;;;;;;;15.99;100.00;99966.45;1714074;81;21089;-55
2022/07/02 01:30:03;;;;;;;3.20;0.60;;;;;;;15.96;100.00;99966.67;1713800;81;21501;-55
2022/07/02 01:32:31;;;;;;;3.15;0.90;;;;;;;15.96;100.00;99975.30;1712304;81;20948;-55
2022/07/02 01:35:05;;;;;;;1.80;0.62;;;;;;;15.95;100.00;99977.63;1712239;81;20915;-55
2022/07/02 01:37:31;;;;;;;4.55;0.78;;;;;;;15.92;100.00;99975.98;1720428;81;20968;-55
2022/07/02 01:39:58;;;;;;;1.98;0.70;;;;;;;15.89;100.00;99974.36;1719461;81;20911;-54
2022/07/02 01:42:25;;;;;;;2.27;0.70;;;;;;;15.91;100.00;99982.89;1712668;81;20963;-55
2022/07/02 01:44:52;;;;;;;1.10;0.60;;;;;;;15.93;100.00;99982.28;1713772;81;21417;-55
2022/07/02 01:47:18;;;;;;;0.68;0.60;;;;;;;15.96;100.00;99982.09;1712046;81;21548;-52
2022/07/02 01:49:45;;;;;;;0.60;0.57;;;;;;;15.99;100.00;99979.18;1718794;81;21508;-52
2022/07/02 01:52:13;;;;;;;0.70;0.60;;;;;;;16.04;100.00;99986.52;1713916;81;21461;-55
2022/07/02 01:54:40;;;;;;;0.72;0.60;;;;;;;16.05;100.00;99976.92;1704410;82;20959;-55
2022/07/02 01:57:06;;;;;;;1.60;0.50;;;;;;;16.04;100.00;99991.47;1718417;81;21067;-55
2022/07/02 01:59:33;;;;;;;1.02;0.80;;;;;;;16.07;100.00;99990.40;1711586;81;21524;-55
2022/07/02 02:02:00;;;;;;;0.60;0.60;;;;;;;16.07;100.00;99999.42;1711967;81;20959;-54
2022/07/02 02:04:26;;;;;;;1.05;0.80;;;;;;;16.07;100.00;99995.83;1717276;81;21585;-55
2022/07/02 02:06:53;;;;;;;0.85;0.70;;;;;;;16.05;100.00;100001.84;1710780;81;21082;-55
2022/07/02 02:09:20;;;;;;;1.52;0.80;;;;;;;16.02;100.00;100000.67;1711576;81;21303;-55
2022/07/02 02:11:46;;;;;;;1.10;0.78;;;;;;;15.97;100.00;100005.55;1668933;83;21521;-55
2022/07/02 02:14:13;;;;;;;1.00;0.80;;;;;;;15.96;100.00;100003.81;1700118;82;21068;-54
2022/07/02 02:16:39;;;;;;;3.35;0.90;;;;;;;15.93;100.00;100011.66;1702910;82;21060;-54
2022/07/02 02:19:07;;;;;;;2.50;0.85;;;;;;;15.91;100.00;100014.95;1695176;82;21085;-54
2022/07/02 02:21:33;;;;;;;3.10;0.90;;;;;;;15.88;100.00;100016.05;1693562;82;21302;-54
2022/07/02 02:24:00;;;;;;;0.85;0.70;;;;;;;15.85;100.00;100009.94;1700096;82;21072;-54
2022/07/02 02:26:27;;;;;;;4.22;0.75;;;;;;;15.86;100.00;100013.91;1682087;83;21475;-54
2022/07/02 02:28:54;;;;;;;3.33;0.72;;;;;;;15.87;100.00;100007.52;1699373;82;21967;-54
2022/07/02 02:31:22;;;;;;;0.85;0.70;;;;;;;15.90;100.00;100010.53;1701928;82;21065;-55
2022/07/02 02:33:48;;;;;;;0.80;0.80;;;;;;;15.95;100.00;100007.01;1698769;82;21416;-55
2022/07/02 02:36:15;;;;;;;2.30;0.78;;;;;;;15.96;100.00;100007.40;1697543;82;21950;-54
2022/07/02 02:38:42;;;;;;;0.75;0.72;;;;;;;16.06;100.00;99998.16;1680555;83;21049;-55
2022/07/02 02:41:09;;;;;;;3.12;0.80;;;;;;;16.09;100.00;100006.08;1681846;83;21095;-55
2022/07/02 02:43:36;;;;;;;1.02;0.70;;;;;;;16.14;100.00;100011.61;1681935;82;21129;-55
2022/07/02 02:46:02;;;;;;;0.90;0.70;;;;;;;16.17;100.00;100011.86;1681661;82;21849;-55
2022/07/02 02:48:29;;;;;;;3.83;0.62;;;;;;;16.21;100.00;100018.84;1679384;82;21201;-55
2022/07/02 02:50:57;;;;;;;2.30;0.70;;;;;;;16.26;100.00;100020.75;1685500;82;21445;-54
2022/07/02 02:53:24;;;;;;;2.22;0.70;;;;;;;16.35;100.00;100021.49;1678310;82;21639;-54
2022/07/02 02:55:50;;;;;;;1.30;0.70;;;;;;;16.46;100.00;100023.00;1679810;82;21520;-54
2022/07/02 02:58:17;;;;;;;2.08;0.90;;;;;;;16.60;100.00;100034.27;1679869;82;21575;-54
2022/07/02 03:00:44;;;;;;;1.98;0.68;;;;;;;16.67;100.00;100023.42;1680721;82;21072;-54
2022/07/02 03:03:11;;;;;;;3.20;0.78;;;;;;;16.75;100.00;100028.33;1678607;82;21074;-54
2022/07/02 03:05:38;;;;;;;3.60;0.60;;;;;;;16.79;100.00;100025.28;1679043;82;21081;-54
2022/07/02 03:08:04;;;;;;;2.77;0.60;;;;;;;16.81;100.00;100034.20;1680781;82;21707;-54
2022/07/02 03:10:31;;;;;;;2.30;0.60;;;;;;;16.85;100.00;100035.72;1680921;82;22198;-55
2022/07/02 03:12:57;;;;;;;1.02;0.70;;;;;;;16.89;100.00;100031.82;1677974;83;21144;-54
2022/07/02 03:15:25;;;;;;;4.15;0.72;;;;;;;16.96;100.00;100036.34;1697005;82;21056;-54
2022/07/02 03:17:53;;;;;;;1.90;0.90;;;;;;;17.01;100.00;100035.02;1683613;83;21071;-54
2022/07/02 03:20:19;;;;;;;1.92;0.80;;;;;;;17.06;100.00;100040.16;1701448;82;21057;-54
2022/07/02 03:23:42;;;;;;;2.90;0.90;;;;;;;17.19;100.00;100041.02;1791404;78;27788;-54
2022/07/02 03:26:09;;;;;;;4.30;0.82;;;;;;;17.24;100.00;100045.66;1770457;79;20930;-54
2022/07/02 03:28:35;;;;;;;1.00;0.80;;;;;;;17.36;100.00;100040.69;1764912;79;21153;-53
2022/07/02 03:31:01;;;;;;;0.95;0.82;;;;;;;17.51;100.00;100043.31;1764631;79;21456;-53
2022/07/02 03:33:28;;;;;;;3.75;0.90;;;;;;;17.62;100.00;100044.28;1767709;79;20973;-53
2022/07/02 03:35:55;;;;;;;3.10;0.90;;;;;;;17.74;100.00;100047.49;1770655;79;20966;-54
2022/07/02 03:38:21;;;;;;;4.08;0.90;;;;;;;17.88;100.00;100046.46;1767000;79;21049;-54
2022/07/02 03:40:48;;;;;;;2.77;0.80;;;;;;;18.02;100.00;100050.42;1772338;79;21219;-54
2022/07/02 03:43:14;;;;;;;3.67;0.90;;;;;;;18.13;100.00;100040.06;1765534;78;21459;-54
2022/07/02 03:45:40;;;;;;;1.98;1.00;;;;;;;18.24;100.00;100037.91;1767458;79;21864;-54
2022/07/02 03:48:07;;;;;;;1.20;1.10;;;;;;;18.32;100.00;100034.11;1769854;79;22202;-53
2022/07/02 03:50:38;;;;;;;1.87;0.93;;;;;;;18.39;100.00;100029.92;1717086;81;21327;-53
2022/07/02 03:53:05;;;;;;;0.80;0.78;;;;;;;18.44;100.00;100032.70;1730622;81;21100;-54
2022/07/02 03:55:32;;;;;;;3.05;1.32;;;;;;;18.52;100.00;100032.11;1736294;81;21024;-54
2022/07/02 03:57:58;;;;;;;3.12;0.80;;;;;;;18.58;100.00;100029.43;1725098;81;21040;-55
2022/07/02 04:00:25;;;;;;;11.25;1.77;;;;;;;18.65;100.00;100032.05;1715760;81;21068;-54
2022/07/02 04:02:52;;;;;;;0.93;0.90;;;;;;;18.75;100.00;100035.81;1717620;81;21108;-54
2022/07/02 04:05:18;;;;;;;3.20;0.88;;;;;;;18.83;100.00;100032.87;1713397;81;21140;-54
2022/07/02 04:07:46;;;;;;;0.90;0.70;;;;;;;18.91;100.00;100030.91;1717098;81;21062;-54
2022/07/02 04:10:12;;;;;;;1.00;0.90;;;;;;;18.98;100.00;100032.16;1714198;81;21168;-53
2022/07/02 04:12:39;;;;;;;2.62;0.90;;;;;;;19.06;100.00;100032.91;1716778;81;21096;-54
2022/07/02 04:15:07;;;;;;;0.98;0.88;;;;;;;19.13;100.00;100033.70;1682321;83;21136;-54
2022/07/02 04:17:33;;;;;;;1.55;0.90;;;;;;;19.16;100.00;100035.30;1690207;82;22199;-54
2022/07/02 04:19:59;;;;;;;1.82;0.90;;;;;;;19.20;100.00;100036.31;1692293;82;21627;-54
2022/07/02 04:22:28;;;;;;;0.80;0.80;;;;;;;19.26;100.00;100045.86;1685203;83;21008;-55
2022/07/02 04:24:55;;;;;;;2.45;0.90;;;;;;;19.34;100.00;100048.84;1672336;83;21063;-54
2022/07/02 04:27:21;;;;;;;2.65;0.90;;;;;;;19.42;100.00;100045.01;1677702;83;20964;-55
2022/07/02 04:29:48;;;;;;;2.33;0.80;;;;;;;19.50;100.00;100045.78;1675029;83;21277;-54
2022/07/02 04:32:14;;;;;;;2.85;0.85;;;;;;;19.58;100.00;100045.55;1669418;83;21099;-55
2022/07/02 04:34:41;;;;;;;2.05;0.90;;;;;;;19.66;100.00;100050.37;1673051;83;21373;-54
2022/07/02 04:37:07;;;;;;;1.77;0.95;;;;;;;19.74;100.00;100060.19;1675177;83;20935;-54
2022/07/02 04:39:34;;;;;;;1.35;0.80;;;;;;;19.80;100.00;100065.66;1675525;83;21126;-55
2022/07/02 04:42:00;;;;;;;2.05;1.00;;;;;;;19.86;100.00;100066.03;1673577;83;21259;-54
2022/07/02 04:44:27;;;;;;;1.10;0.90;;;;;;;19.93;100.00;100070.48;1675425;83;21409;-55
2022/07/02 04:46:53;;;;;;;1.90;0.88;;;;;;;20.00;100.00;100073.08;1678623;83;21055;-55
2022/07/02 04:49:19;;;;;;;3.77;0.80;;;;;;;20.03;100.00;100069.61;1674329;83;21443;-54
2022/07/02 04:51:46;;;;;;;1.05;0.80;;;;;;;20.09;100.00;100077.80;1671367;83;21099;-54
2022/07/02 04:54:12;;;;;;;3.22;0.70;;;;;;;20.16;100.00;100072.19;1672229;83;21141;-55
2022/07/02 04:56:39;;;;;;;1.75;0.90;;;;;;;20.25;100.00;100073.28;1673069;84;21039;-55
2022/07/02 04:59:06;;;;;;;2.22;0.80;;;;;;;20.33;100.00;100071.66;1674156;84;20903;-54
2022/07/02 05:01:33;;;;;;;1.30;1.20;;;;;;;20.43;100.00;100077.75;1673341;83;20984;-54
2022/07/02 05:04:00;;;;;;;5.08;0.80;;;;;;;20.54;100.00;100088.17;1674201;83;20973;-54
2022/07/02 05:06:26;;;;;;;5.12;0.80;;;;;;;20.63;100.00;100082.42;1671382;84;21138;-54
2022/07/02 05:08:52;;;;;;;3.33;0.70;;;;;;;20.71;100.00;100071.70;1674406;83;21071;-54
2022/07/02 05:11:20;;;;;;;1.00;0.70;;;;;;;20.77;100.00;100069.80;1668808;83;21139;-55
2022/07/02 05:13:47;;;;;;;2.45;0.80;;;;;;;20.86;100.00;100077.72;1667375;83;21103;-55
2022/07/02 05:16:15;;;;;;;6.47;0.80;;;;;;;20.94;100.00;100082.91;1674816;83;21091;-55
2022/07/02 05:18:42;;;;;;;2.15;0.70;;;;;;;21.03;100.00;100082.61;1677391;83;21156;-55
2022/07/02 05:21:08;;;;;;;2.80;0.72;;;;;;;21.11;100.00;100082.32;1669805;83;21063;-55
2022/07/02 05:23:36;;;;;;;3.60;0.78;;;;;;;21.15;100.00;100082.44;1733760;80;21050;-54
2022/07/02 05:26:02;;;;;;;2.47;0.70;;;;;;;21.22;100.00;100080.06;1731905;80;21141;-55
2022/07/02 05:28:29;;;;;;;0.90;0.70;;;;;;;21.30;100.00;100079.38;1738915;80;21065;-54
2022/07/02 05:30:56;;;;;;;2.25;0.80;;;;;;;21.39;100.00;100082.19;1734487;80;22491;-54
2022/07/02 05:33:22;;;;;;;1.10;0.80;;;;;;;21.43;100.00;100086.91;1732638;80;21144;-54
2022/07/02 05:35:49;;;;;;;2.12;0.70;;;;;;;21.50;100.00;100084.86;1738838;80;21559;-54
2022/07/02 05:38:15;;;;;;;4.85;0.75;;;;;;;21.56;100.00;100084.81;1732205;80;21140;-54
2022/07/02 05:40:42;;;;;;;1.75;0.80;;;;;;;21.61;100.00;100075.67;1736383;80;21514;-55
2022/07/02 05:43:09;;;;;;;4.87;0.72;;;;;;;21.67;100.00;100092.95;1733251;80;22492;-55
2022/07/02 05:45:35;;;;;;;1.00;0.68;;;;;;;21.73;100.00;100088.29;1730344;80;21096;-55
2022/07/02 05:48:03;;;;;;;4.10;0.80;;;;;;;21.79;100.00;100090.47;1736078;80;21148;-55
2022/07/02 05:50:29;;;;;;;3.80;0.80;;;;;;;21.86;100.00;100097.67;1734822;80;21499;-54
2022/07/02 05:52:56;;;;;;;1.22;0.70;;;;;;;21.94;100.00;100099.72;1732846;80;21049;-54
2022/07/02 05:55:23;;;;;;;4.40;0.78;;;;;;;22.01;100.00;100092.70;1740647;80;21867;-55
2022/07/02 05:57:49;;;;;;;1.22;0.78;;;;;;;22.08;100.00;100091.14;1732516;80;21065;-56
2022/07/02 06:00:16;;;;;;;1.30;0.90;;;;;;;22.15;100.00;100093.18;1734568;80;21508;-56
2022/07/02 06:02:43;;;;;;;1.40;1.10;;;;;;;22.23;100.00;100107.06;1734033;80;21106;-56
2022/07/02 06:07:54;;;;;;;4.80;1.20;;;;;;;22.34;100.00;100109.33;1735379;80;21136;-55
2022/07/02 06:10:21;;;;;;;2.45;1.02;;;;;;;22.40;100.00;100108.26;1733786;80;21361;-55
2022/07/02 06:12:50;;;;;;;2.08;0.85;;;;;;;22.44;100.00;100106.98;1733655;80;21129;-56
2022/07/02 06:15:17;;;;;;;2.90;0.80;;;;;;;22.50;100.00;100100.06;1731712;80;21035;-55
2022/07/02 06:17:44;;;;;;;5.08;0.90;;;;;;;22.58;100.00;100101.59;1737038;80;21489;-55
2022/07/02 06:20:11;;;;;;;4.33;0.98;;;;;;;22.63;100.00;100101.51;1733525;80;21750;-55
2022/07/02 06:22:39;;;;;;;2.47;0.80;;;;;;;22.69;100.00;100113.81;1730917;80;21620;-55
2022/07/02 06:25:07;;;;;;;1.10;0.70;;;;;;;22.75;100.00;100109.16;1701841;82;22349;-55
2022/07/02 06:27:34;;;;;;;3.72;1.52;;;;;;;22.82;100.00;100116.30;1702966;82;21677;-54
2022/07/02 06:30:02;;;;;;;2.50;0.82;;;;;;;22.88;100.00;100114.38;1703447;82;21105;-54
2022/07/02 06:32:29;;;;;;;3.15;0.80;;;;;;;22.94;100.00;100115.17;1699562;82;21553;-54
2022/07/02 06:34:57;;;;;;;2.98;0.70;;;;;;;23.00;100.00;100114.58;1704605;82;21092;-55
2022/07/02 06:37:24;;;;;;;2.42;0.70;;;;;;;23.06;100.00;100125.48;1699966;82;21090;-55
2022/07/02 06:39:51;;;;;;;1.10;0.70;;;;;;;23.11;100.00;100128.68;1707566;82;21696;-55
2022/07/02 06:42:22;;;;;;;7.45;0.70;;;;;;;23.14;100.00;100122.91;1701735;82;21066;-54
2022/07/02 06:44:54;;;;;;;1.05;0.60;;;;;;;23.21;100.00;100121.31;1704815;82;21228;-56
2022/07/02 06:47:21;;;;;;;5.25;0.90;;;;;;;23.18;100.00;100130.70;1706982;82;21562;-55
2022/07/02 06:49:48;;;;;;;2.25;1.00;;;;;;;23.20;100.00;100130.05;1703596;82;21041;-56
2022/07/02 06:52:16;;;;;;;0.88;0.70;;;;;;;23.22;100.00;100128.00;1705436;82;21484;-53
2022/07/02 06:54:43;;;;;;;4.28;0.70;;;;;;;23.25;100.00;100129.09;1708333;82;22140;-57
2022/07/02 06:57:09;;;;;;;3.95;0.70;;;;;;;23.32;100.00;100129.38;1702756;82;21138;-54
2022/07/02 06:59:36;;;;;;;1.57;0.70;;;;;;;23.38;100.00;100129.69;1705048;82;21450;-58
2022/07/02 07:02:04;;;;;;;4.62;0.70;;;;;;;23.38;100.00;100142.55;1700782;82;21065;-56
2022/07/02 07:04:30;;;;;;;3.37;0.72;;;;;;;23.42;100.00;100138.98;1700768;82;21709;-56
2022/07/02 07:06:57;;;;;;;2.45;0.70;;;;;;;23.45;100.00;100133.20;1701429;82;21053;-57
2022/07/02 07:09:23;;;;;;;1.62;0.70;;;;;;;23.53;100.00;100136.12;1703770;82;21098;-57
2022/07/02 07:11:50;;;;;;;3.67;0.70;;;;;;;23.55;100.00;100132.73;1700612;82;21198;-56
2022/07/02 07:14:18;;;;;;;1.50;0.60;;;;;;;23.56;100.00;100141.33;1701417;82;21702;-56
2022/07/02 07:16:44;;;;;;;1.32;0.70;;;;;;;23.60;100.00;100135.88;1703995;82;21052;-56
2022/07/02 07:19:11;;;;;;;1.30;0.68;;;;;;;23.68;100.00;100134.63;1699362;82;21077;-56
2022/07/02 07:21:39;;;;;;;3.17;0.70;;;;;;;23.74;100.00;100129.91;1703642;82;21237;-54
2022/07/02 07:24:07;;;;;;;4.20;0.60;;;;;;;23.78;100.00;100133.23;1719529;80;21109;-55
2022/07/02 07:26:34;;;;;;;3.22;0.60;;;;;;;23.79;100.00;100132.23;1732947;80;21034;-56
2022/07/02 07:29:03;;;;;;;4.72;0.70;;;;;;;23.83;100.00;100127.64;1734367;80;21093;-56
2022/07/02 07:31:31;;;;;;;4.70;1.00;;;;;;;23.89;100.00;100133.94;1734722;80;21556;-55
2022/07/02 07:33:57;;;;;;;1.67;0.53;;;;;;;23.93;100.00;100125.73;1732312;80;22347;-56
2022/07/02 07:36:26;;;;;;;1.77;0.57;;;;;;;24.02;100.00;100133.59;1739000;80;21889;-56
2022/07/02 07:38:53;;;;;;;4.65;0.70;;;;;;;24.06;100.00;100140.53;1732850;80;21018;-56
2022/07/02 07:41:20;;;;;;;3.70;0.62;;;;;;;24.10;100.00;100143.33;1739157;80;21402;-57
2022/07/02 07:43:48;;;;;;;1.02;0.55;;;;;;;24.16;100.00;100140.50;1740036;80;20950;-60
2022/07/02 07:46:15;;;;;;;2.15;0.60;;;;;;;24.20;100.00;100147.41;1730503;80;21083;-57
2022/07/02 07:48:41;;;;;;;0.95;0.60;;;;;;;24.20;100.00;100141.91;1733049;80;20963;-57
2022/07/02 07:51:07;;;;;;;0.62;0.50;;;;;;;24.26;100.00;100148.20;1737074;80;20885;-58
2022/07/02 07:53:34;;;;;;;1.65;0.50;;;;;;;24.31;100.00;100144.52;1731457;80;21015;-57
2022/07/02 07:56:01;;;;;;;1.98;0.60;;;;;;;24.37;100.00;100153.02;1736423;80;21101;-58
2022/07/02 07:58:29;;;;;;;5.80;0.90;;;;;;;24.44;100.00;100150.52;1732243;80;21321;-58
2022/07/02 08:00:56;;;;;;;2.15;0.62;;;;;;;24.48;100.00;100150.58;1736779;80;20949;-57
2022/07/02 08:03:22;;;;;;;2.10;0.50;;;;;;;24.56;100.00;100154.80;1737734;80;20907;-57
2022/07/02 08:05:53;;;;;;;1.77;0.50;;;;;;;24.65;100.00;100151.13;1701234;82;20915;-59
2022/07/02 08:08:21;;;;;;;0.80;0.50;;;;;;;24.76;100.00;100141.77;1740537;80;20954;-58
2022/07/02 08:10:48;;;;;;;3.12;0.50;;;;;;;24.76;100.00;100145.90;1740981;80;21908;-57
2022/07/02 08:13:15;;;;;;;3.12;0.45;;;;;;;24.80;100.00;100155.09;1738869;80;20989;-57
2022/07/02 08:15:44;;;;;;;1.02;0.40;;;;;;;24.87;100.00;100155.33;1730994;80;20970;-57
2022/07/02 08:18:11;;;;;;;1.10;0.40;;;;;;;24.96;100.00;100162.69;1693960;83;21123;-57
2022/07/02 08:20:37;;;;;;;2.45;0.40;;;;;;;25.05;100.00;100163.64;1735030;80;21106;-58
2022/07/02 08:23:04;;;;;;;0.50;0.40;;;;;;;25.15;100.00;100163.05;1736929;80;21613;-58
2022/07/02 08:25:30;;;;;;;2.27;0.35;;;;;;;25.20;100.00;100168.95;1746858;80;21323;-58
2022/07/02 08:27:57;;;;;;;3.33;0.30;;;;;;;25.25;100.00;100169.36;1744291;80;21049;-58
2022/07/02 08:30:23;;;;;;;0.50;0.30;;;;;;;25.31;100.00;100174.23;1745149;80;21145;-57
2022/07/02 08:32:51;;;;;;;4.05;0.40;;;;;;;25.36;100.00;100180.12;1744910;80;21478;-57
2022/07/02 08:35:18;;;;;;;1.77;0.40;;;;;;;25.37;100.00;100177.72;1741093;80;21238;-55
2022/07/02 08:37:45;;;;;;;0.60;0.40;;;;;;;25.42;100.00;100180.02;1745203;80;21081;-57
2022/07/02 08:40:12;;;;;;;0.88;0.40;;;;;;;25.49;100.00;100176.47;1742491;80;21077;-56
2022/07/02 08:42:41;;;;;;;1.25;0.40;;;;;;;25.55;100.00;100173.57;1743061;80;21081;-56
2022/07/02 08:45:10;;;;;;;4.42;0.40;;;;;;;25.59;100.00;100178.66;1747825;80;21559;-57
2022/07/02 08:47:39;;;;;;;2.22;0.42;;;;;;;25.68;100.00;100175.45;1742592;80;21328;-57
2022/07/02 08:50:07;;;;;;;1.35;0.42;;;;;;;25.73;100.00;100163.92;1740368;80;21483;-57
2022/07/02 08:52:33;;;;;;;0.33;0.30;;;;;;;25.76;100.00;100169.13;1747173;80;21914;-57
2022/07/02 08:54:59;;;;;;;2.47;0.40;;;;;;;25.81;100.00;100166.23;1744730;80;21512;-57
2022/07/02 08:57:27;;;;;;;2.25;0.40;;;;;;;25.90;100.00;100167.16;1743727;80;21749;-58
2022/07/02 08:59:53;;;;;;;0.95;0.40;;;;;;;25.92;100.00;100167.86;1743828;80;21231;-56
2022/07/02 09:02:20;;;;;;;0.50;0.30;;;;;;;25.96;100.00;100176.15;1748321;80;21093;-57
2022/07/02 09:04:48;;;;;;;1.67;0.40;;;;;;;25.99;100.00;100165.67;1746074;80;21432;-56
2022/07/02 09:07:16;;;;;;;1.45;0.45;;;;;;;26.02;100.00;100174.14;1744709;80;21263;-56
2022/07/02 09:09:45;;;;;;;1.47;0.40;;;;;;;26.02;100.00;100170.00;1745952;80;21047;-56
2022/07/02 09:12:13;;;;;;;0.88;0.40;;;;;;;25.98;100.00;100172.72;1739913;80;21153;-57
2022/07/02 09:14:42;;;;;;;0.95;0.40;;;;;;;26.04;100.00;100173.95;1741339;80;21100;-56
2022/07/02 09:17:10;;;;;;;2.20;0.35;;;;;;;26.06;100.00;100169.15;1741194;80;21446;-57
2022/07/02 09:19:37;;;;;;;1.07;0.50;;;;;;;26.09;100.00;100177.98;1745007;80;21055;-56
2022/07/02 09:22:04;;;;;;;0.65;0.40;;;;;;;26.05;100.00;100175.17;1744773;80;21601;-58
2022/07/02 09:24:34;;;;;;;2.55;0.50;;;;;;;26.00;100.00;100174.81;1737843;80;21636;-56
2022/07/02 09:27:12;;;;;;;0.40;0.40;;;;;;;25.97;100.00;100182.02;1736390;80;21840;-57
2022/07/02 09:29:52;;;;;;;0.50;0.33;;;;;;;25.90;100.00;100179.56;1736571;80;20954;-57
2022/07/02 09:32:19;;;;;;;1.67;0.40;;;;;;;25.89;100.00;100169.05;1741967;80;20871;-57
2022/07/02 09:34:50;;;;;;;0.95;0.40;;;;;;;25.89;100.00;100170.94;1737232;80;20923;-54
2022/07/02 09:37:24;;;;;;;0.30;0.30;;;;;;;25.95;100.00;100167.01;1740521;80;21202;-56
2022/07/02 09:39:52;;;;;;;;;;;;;;;25.97;100.00;100169.61;1737894;80;20934;-57
2022/07/02 09:42:29;;;;;;;0.68;0.37;;;;;;;26.06;100.00;100171.91;1733976;80;20200;-57
2022/07/02 09:44:56;;;;;;;1.95;0.40;;;;;;;26.14;100.00;100167.81;1733477;80;21521;-57
2022/07/02 09:47:36;;;;;;;0.40;0.33;;;;;;;26.20;100.00;100161.12;1732894;80;21049;-57
2022/07/02 09:50:10;;;;;;;2.05;0.40;;;;;;;26.25;100.00;100161.52;1738950;80;21137;-57
2022/07/02 09:52:55;;;;;;;2.05;0.40;;;;;;;26.31;100.00;100160.88;1740078;80;21076;-58
2022/07/02 09:55:29;;;;;;;0.95;0.40;;;;;;;26.35;100.00;100164.19;1736680;80;21532;-57
2022/07/02 09:57:59;;;;;;;0.60;0.40;;;;;;;26.36;100.00;100168.68;1738390;80;21109;-56
2022/07/02 10:00:28;;;;;;;1.70;0.42;;;;;;;26.38;100.00;100167.46;1734859;80;21054;-56
2022/07/02 10:02:56;;;;;;;0.90;0.40;;;;;;;26.43;100.00;100175.78;1731105;80;21585;-56
2022/07/02 10:05:33;;;;;;;1.67;0.40;;;;;;;26.46;100.00;100172.66;1733274;80;21070;-57
2022/07/02 10:08:01;;;;;;;0.40;0.30;;;;;;;26.53;100.00;100178.77;1737063;80;21097;-56
2022/07/02 10:10:39;;;;;;;0.62;0.40;;;;;;;26.60;100.00;100173.44;1735470;80;21508;-57
2022/07/02 10:13:12;;;;;;;0.93;0.35;;;;;;;26.66;100.00;100179.16;1735013;80;21087;-58
2022/07/02 10:15:56;;;;;;;0.70;0.40;;;;;;;26.73;100.00;100169.67;1732431;80;21713;-56
2022/07/02 10:18:23;;;;;;;;;;;;;;;26.79;100.00;100170.92;1730005;80;22257;-56
2022/07/02 10:20:50;;;;;;;2.58;0.40;;;;;;;26.84;100.00;100172.66;1735511;80;20192;-57
2022/07/02 10:23:17;;;;;;;3.70;0.45;;;;;;;26.78;100.00;100178.86;1734414;80;21038;-57
2022/07/02 10:25:44;;;;;;;2.92;0.40;;;;;;;26.64;100.00;100173.44;1730388;80;21101;-55
2022/07/02 10:28:11;;;;;;;0.80;0.33;;;;;;;26.52;100.00;100170.65;1729295;81;21473;-57
2022/07/02 10:30:38;;;;;;;0.95;0.30;;;;;;;26.43;100.00;100171.12;1729214;81;22121;-57
2022/07/02 10:33:29;;;;;;;0.53;0.30;;;;;;;26.44;100.00;100170.09;1723626;81;21074;-56
2022/07/02 10:35:58;;;;;;;1.80;0.30;;;;;;;26.50;100.00;100169.94;1731100;81;20955;-57
2022/07/02 10:38:33;;;;;;;0.40;0.40;;;;;;;26.56;100.00;100166.50;1729276;81;20955;-57
2022/07/02 10:41:00;;;;;;;1.25;0.40;;;;;;;26.61;100.00;100160.86;1729269;81;21202;-57
2022/07/02 10:43:28;;;;;;;0.85;0.40;;;;;;;26.67;100.00;100159.31;1732590;81;20895;-57
2022/07/02 10:46:08;;;;;;;0.57;0.40;;;;;;;26.74;100.00;100164.51;1732042;81;21407;-59
2022/07/02 10:48:38;;;;;;;1.42;0.30;;;;;;;26.79;100.00;100158.50;1729538;81;20888;-57
2022/07/02 10:51:06;;;;;;;0.40;0.40;;;;;;;26.84;100.00;100155.57;1711162;81;21038;-55
2022/07/02 10:53:34;;;;;;;3.50;0.30;;;;;;;26.90;100.00;100150.73;1727459;81;21304;-58
2022/07/02 10:56:03;;;;;;;2.65;0.30;;;;;;;26.94;100.00;100148.55;1730805;81;20985;-56
2022/07/02 10:58:32;;;;;;;1.07;0.30;;;;;;;26.94;100.00;100148.04;1718469;81;21094;-57
2022/07/02 11:01:12;;;;;;;1.10;0.30;;;;;;;26.95;100.00;100141.48;1721639;81;21043;-58
2022/07/02 11:03:54;;;;;;;0.40;0.30;;;;;;;26.97;100.00;100139.39;1726658;81;21432;-58
2022/07/02 11:06:28;;;;;;;0.50;0.30;;;;;;;27.00;100.00;100133.53;1721308;81;21350;-56
2022/07/02 11:09:04;;;;;;;;;;;;;;;27.07;100.00;100135.96;1735032;81;21377;-58
2022/07/02 11:11:39;;;;;;;2.58;0.30;;;;;;;27.13;100.00;100139.09;1730042;81;20138;-58
2022/07/02 11:14:17;;;;;;;2.47;0.30;;;;;;;27.07;100.00;100120.77;1723152;81;21013;-57
2022/07/02 11:16:51;;;;;;;1.40;0.37;;;;;;;27.03;100.00;100126.30;1729231;81;21044;-57
2022/07/02 11:19:27;;;;;;;1.35;0.28;;;;;;;27.03;100.00;100131.83;1725713;81;22354;-56
2022/07/02 11:21:59;;;;;;;0.30;0.30;;;;;;;27.08;100.00;100125.77;1729721;81;20966;-57
2022/07/02 11:24:30;;;;;;;1.65;0.40;;;;;;;27.13;100.00;100122.52;1728434;80;21227;-57
2022/07/02 11:26:58;;;;;;;3.60;0.30;;;;;;;27.17;100.00;100121.12;1744277;80;21081;-58